sensor_id;sensor_type;location;lat;lon;timestamp;temperature;humidity
64951;DHT22;51482;47.014;7.652;2023-04-25T00:01:55;9.60;99.90
64951;DHT22;51482;47.014;7.652;2023-04-25T00:04:22;9.60;99.90
64951;DHT22;51482;47.014;7.652;2023-04-25T00:06:47;10.70;99.20
64951;DHT22;51482;47.014;7.652;2023-04-25T00:09:13;10.00;99.10
64951;DHT22;51482;47.014;7.652;2023-04-25T00:11:39;10.00;99.10
64951;DHT22;51482;47.014;7.652;2023-04-25T00:14:05;10.50;99.40
64951;DHT22;51482;47.014;7.652;2023-04-25T00:16:32;10.00;98.90
64951;DHT22;51482;47.014;7.652;2023-04-25T00:19:00;9.50;99.20
64951;DHT22;51482;47.014;7.652;2023-04-25T00:21:26;10.50;99.30
64951;DHT22;51482;47.014;7.652;2023-04-25T00:23:53;10.60;99.90
64951;DHT22;51482;47.014;7.652;2023-04-25T00:26:20;10.40;99.70
64951;DHT22;51482;47.014;7.652;2023-04-25T00:28:47;10.10;99.90
64951;DHT22;51482;47.014;7.652;2023-04-25T00:31:12;10.60;99.90
64951;DHT22;51482;47.014;7.652;2023-04-25T00:33:38;10.70;99.90
64951;DHT22;51482;47.014;7.652;2023-04-25T00:36:04;10.20;99.90
64951;DHT22;51482;47.014;7.652;2023-04-25T00:38:30;10.20;99.30
64951;DHT22;51482;47.014;7.652;2023-04-25T00:40:55;9.80;99.60
64951;DHT22;51482;47.014;7.652;2023-04-25T00:43:22;10.10;99.80
64951;DHT22;51482;47.014;7.652;2023-04-25T00:45:48;9.60;99.90
64951;DHT22;51482;47.014;7.652;2023-04-25T00:48:15;9.90;99.90
64951;DHT22;51482;47.014;7.652;2023-04-25T00:50:44;9.90;99.90
64951;DHT22;51482;47.014;7.652;2023-04-25T00:53:14;10.50;99.60
64951;DHT22;51482;47.014;7.652;2023-04-25T00:55:40;10.30;99.90
64951;DHT22;51482;47.014;7.652;2023-04-25T00:58:05;9.80;99.90
64951;DHT22;51482;47.014;7.652;2023-04-25T01:00:31;10.40;99.90
64951;DHT22;51482;47.014;7.652;2023-04-25T01:02:57;10.00;99.90
64951;DHT22;51482;47.014;7.652;2023-04-25T01:05:22;10.10;99.90
64951;DHT22;51482;47.014;7.652;2023-04-25T01:07:48;9.90;99.90
64951;DHT22;51482;47.014;7.652;2023-04-25T01:10:14;10.10;99.90
64951;DHT22;51482;47.014;7.652;2023-04-25T01:12:40;10.20;99.90
64951;DHT22;51482;47.014;7.652;2023-04-25T01:15:06;9.80;99.90
64951;DHT22;51482;47.014;7.652;2023-04-25T01:17:34;9.90;99.90
64951;DHT22;51482;47.014;7.652;2023-04-25T01:20:03;9.90;99.90
64951;DHT22;51482;47.014;7.652;2023-04-25T01:22:29;9.50;99.90
64951;DHT22;51482;47.014;7.652;2023-04-25T01:24:55;9.40;99.90
64951;DHT22;51482;47.014;7.652;2023-04-25T01:27:21;10.10;99.90
64951;DHT22;51482;47.014;7.652;2023-04-25T01:29:48;10.30;99.90
64951;DHT22;51482;47.014;7.652;2023-04-25T01:32:14;9.60;99.90
64951;DHT22;51482;47.014;7.652;2023-04-25T01:34:40;10.30;99.90
64951;DHT22;51482;47.014;7.652;2023-04-25T01:37:06;10.40;99.90
64951;DHT22;51482;47.014;7.652;2023-04-25T01:39:31;10.30;99.90
64951;DHT22;51482;47.014;7.652;2023-04-25T01:41:59;9.10;99.90
64951;DHT22;51482;47.014;7.652;2023-04-25T01:44:25;9.70;99.90
64951;DHT22;51482;47.014;7.652;2023-04-25T01:46:51;10.20;99.90
64951;DHT22;51482;47.014;7.652;2023-04-25T01:49:16;10.00;99.90
64951;DHT22;51482;47.014;7.652;2023-04-25T01:51:42;9.80;99.90
64951;DHT22;51482;47.014;7.652;2023-04-25T01:54:08;9.20;99.90
64951;DHT22;51482;47.014;7.652;2023-04-25T01:56:37;10.30;99.90
64951;DHT22;51482;47.014;7.652;2023-04-25T01:59:04;10.10;99.90
64951;DHT22;51482;47.014;7.652;2023-04-25T02:01:30;9.90;99.90
64951;DHT22;51482;47.014;7.652;2023-04-25T02:03:55;9.90;99.90
64951;DHT22;51482;47.014;7.652;2023-04-25T02:06:21;9.50;99.90
64951;DHT22;51482;47.014;7.652;2023-04-25T02:08:47;10.10;99.90
64951;DHT22;51482;47.014;7.652;2023-04-25T02:11:12;10.10;99.90
64951;DHT22;51482;47.014;7.652;2023-04-25T02:13:38;9.40;99.90
64951;DHT22;51482;47.014;7.652;2023-04-25T02:16:03;9.70;99.90
64951;DHT22;51482;47.014;7.652;2023-04-25T02:18:29;9.70;99.90
64951;DHT22;51482;47.014;7.652;2023-04-25T02:20:55;10.10;99.90
64951;DHT22;51482;47.014;7.652;2023-04-25T02:23:20;9.40;99.90
64951;DHT22;51482;47.014;7.652;2023-04-25T02:25:46;9.30;99.90
64951;DHT22;51482;47.014;7.652;2023-04-25T02:28:11;9.70;99.90
64951;DHT22;51482;47.014;7.652;2023-04-25T02:30:37;9.70;99.90
64951;DHT22;51482;47.014;7.652;2023-04-25T02:33:03;9.90;99.90
64951;DHT22;51482;47.014;7.652;2023-04-25T02:35:28;9.70;99.90
64951;DHT22;51482;47.014;7.652;2023-04-25T02:37:54;9.60;99.90
64951;DHT22;51482;47.014;7.652;2023-04-25T02:40:19;10.10;99.90
64951;DHT22;51482;47.014;7.652;2023-04-25T02:42:45;10.20;99.90
64951;DHT22;51482;47.014;7.652;2023-04-25T02:45:11;9.70;99.90
64951;DHT22;51482;47.014;7.652;2023-04-25T02:47:37;10.00;99.90
64951;DHT22;51482;47.014;7.652;2023-04-25T02:50:03;9.90;99.90
64951;DHT22;51482;47.014;7.652;2023-04-25T02:52:29;9.40;99.90
64951;DHT22;51482;47.014;7.652;2023-04-25T02:54:54;10.00;99.90
64951;DHT22;51482;47.014;7.652;2023-04-25T02:57:20;9.60;99.90
64951;DHT22;51482;47.014;7.652;2023-04-25T02:59:46;9.60;99.90
64951;DHT22;51482;47.014;7.652;2023-04-25T03:02:11;9.10;99.90
64951;DHT22;51482;47.014;7.652;2023-04-25T03:04:37;9.60;99.90
64951;DHT22;51482;47.014;7.652;2023-04-25T03:07:03;8.90;99.90
64951;DHT22;51482;47.014;7.652;2023-04-25T03:09:29;9.50;99.90
64951;DHT22;51482;47.014;7.652;2023-04-25T03:11:54;9.40;99.90
64951;DHT22;51482;47.014;7.652;2023-04-25T03:14:20;9.80;99.90
64951;DHT22;51482;47.014;7.652;2023-04-25T03:16:45;8.90;99.90
64951;DHT22;51482;47.014;7.652;2023-04-25T03:19:11;9.60;99.90
64951;DHT22;51482;47.014;7.652;2023-04-25T03:21:37;8.60;99.90
64951;DHT22;51482;47.014;7.652;2023-04-25T03:24:04;9.40;99.90
64951;DHT22;51482;47.014;7.652;2023-04-25T03:26:29;9.10;99.90
64951;DHT22;51482;47.014;7.652;2023-04-25T03:28:55;9.50;99.90
64951;DHT22;51482;47.014;7.652;2023-04-25T03:31:20;8.40;99.90
64951;DHT22;51482;47.014;7.652;2023-04-25T03:33:47;8.70;99.90
64951;DHT22;51482;47.014;7.652;2023-04-25T03:36:13;8.70;99.90
64951;DHT22;51482;47.014;7.652;2023-04-25T03:38:38;9.10;99.90
64951;DHT22;51482;47.014;7.652;2023-04-25T03:41:04;8.50;99.90
64951;DHT22;51482;47.014;7.652;2023-04-25T03:43:29;8.20;99.90
64951;DHT22;51482;47.014;7.652;2023-04-25T03:45:55;7.90;99.90
64951;DHT22;51482;47.014;7.652;2023-04-25T03:48:21;8.00;99.90
64951;DHT22;51482;47.014;7.652;2023-04-25T03:50:47;8.00;99.90
64951;DHT22;51482;47.014;7.652;2023-04-25T03:53:13;7.90;99.90
64951;DHT22;51482;47.014;7.652;2023-04-25T03:55:38;7.90;99.90
64951;DHT22;51482;47.014;7.652;2023-04-25T03:58:05;8.30;99.90
64951;DHT22;51482;47.014;7.652;2023-04-25T04:00:30;7.80;99.90
64951;DHT22;51482;47.014;7.652;2023-04-25T04:02:56;7.20;99.90
64951;DHT22;51482;47.014;7.652;2023-04-25T04:05:22;8.20;99.90
64951;DHT22;51482;47.014;7.652;2023-04-25T04:07:47;7.60;99.90
64951;DHT22;51482;47.014;7.652;2023-04-25T04:10:13;7.80;99.90
64951;DHT22;51482;47.014;7.652;2023-04-25T04:12:38;8.40;99.90
64951;DHT22;51482;47.014;7.652;2023-04-25T04:15:05;7.90;99.90
64951;DHT22;51482;47.014;7.652;2023-04-25T04:17:31;7.90;99.90
64951;DHT22;51482;47.014;7.652;2023-04-25T04:19:56;8.10;99.90
64951;DHT22;51482;47.014;7.652;2023-04-25T04:22:23;7.70;99.90
64951;DHT22;51482;47.014;7.652;2023-04-25T04:24:48;8.10;99.90
64951;DHT22;51482;47.014;7.652;2023-04-25T04:27:18;8.00;99.90
64951;DHT22;51482;47.014;7.652;2023-04-25T04:29:44;8.30;99.90
64951;DHT22;51482;47.014;7.652;2023-04-25T04:32:12;7.80;99.90
64951;DHT22;51482;47.014;7.652;2023-04-25T04:34:38;8.00;99.90
64951;DHT22;51482;47.014;7.652;2023-04-25T04:37:05;8.00;99.90
64951;DHT22;51482;47.014;7.652;2023-04-25T04:39:32;8.00;99.90
64951;DHT22;51482;47.014;7.652;2023-04-25T04:41:58;7.30;99.90
64951;DHT22;51482;47.014;7.652;2023-04-25T04:44:24;7.90;99.90
64951;DHT22;51482;47.014;7.652;2023-04-25T04:46:50;7.80;99.90
64951;DHT22;51482;47.014;7.652;2023-04-25T04:49:16;7.90;99.90
64951;DHT22;51482;47.014;7.652;2023-04-25T04:51:43;8.10;99.90
64951;DHT22;51482;47.014;7.652;2023-04-25T04:54:12;8.00;99.90
64951;DHT22;51482;47.014;7.652;2023-04-25T04:56:37;7.90;99.90
64951;DHT22;51482;47.014;7.652;2023-04-25T04:59:03;7.20;99.90
64951;DHT22;51482;47.014;7.652;2023-04-25T05:01:29;7.80;99.90
64951;DHT22;51482;47.014;7.652;2023-04-25T05:03:56;7.50;99.90
64951;DHT22;51482;47.014;7.652;2023-04-25T05:06:28;7.90;99.90
64951;DHT22;51482;47.014;7.652;2023-04-25T05:08:55;7.70;99.90
64951;DHT22;51482;47.014;7.652;2023-04-25T05:11:22;7.90;99.90
64951;DHT22;51482;47.014;7.652;2023-04-25T05:13:49;7.70;99.90
64951;DHT22;51482;47.014;7.652;2023-04-25T05:16:15;8.10;99.90
64951;DHT22;51482;47.014;7.652;2023-04-25T05:18:42;8.50;99.90
64951;DHT22;51482;47.014;7.652;2023-04-25T05:21:07;8.00;99.90
64951;DHT22;51482;47.014;7.652;2023-04-25T05:23:33;8.00;99.90
64951;DHT22;51482;47.014;7.652;2023-04-25T05:25:59;7.70;99.90
64951;DHT22;51482;47.014;7.652;2023-04-25T05:28:25;8.10;99.90
64951;DHT22;51482;47.014;7.652;2023-04-25T05:30:50;8.10;99.90
64951;DHT22;51482;47.014;7.652;2023-04-25T05:33:16;7.40;99.90
64951;DHT22;51482;47.014;7.652;2023-04-25T05:35:42;8.00;99.90
64951;DHT22;51482;47.014;7.652;2023-04-25T05:38:08;8.00;99.90
64951;DHT22;51482;47.014;7.652;2023-04-25T05:40:34;8.00;99.90
64951;DHT22;51482;47.014;7.652;2023-04-25T05:42:59;8.40;99.90
64951;DHT22;51482;47.014;7.652;2023-04-25T05:45:25;7.90;99.90
64951;DHT22;51482;47.014;7.652;2023-04-25T05:47:50;8.40;99.90
64951;DHT22;51482;47.014;7.652;2023-04-25T05:50:16;7.70;99.90
64951;DHT22;51482;47.014;7.652;2023-04-25T05:52:41;7.40;99.90
64951;DHT22;51482;47.014;7.652;2023-04-25T05:55:07;7.90;99.90
64951;DHT22;51482;47.014;7.652;2023-04-25T05:57:33;7.70;99.90
64951;DHT22;51482;47.014;7.652;2023-04-25T05:59:58;8.40;99.90
64951;DHT22;51482;47.014;7.652;2023-04-25T06:02:24;8.10;99.90
64951;DHT22;51482;47.014;7.652;2023-04-25T06:04:50;8.30;99.90
64951;DHT22;51482;47.014;7.652;2023-04-25T06:07:16;7.30;99.90
64951;DHT22;51482;47.014;7.652;2023-04-25T06:09:42;7.90;99.90
64951;DHT22;51482;47.014;7.652;2023-04-25T06:12:08;7.50;99.90
64951;DHT22;51482;47.014;7.652;2023-04-25T06:14:34;7.60;99.90
64951;DHT22;51482;47.014;7.652;2023-04-25T06:17:00;8.40;99.90
64951;DHT22;51482;47.014;7.652;2023-04-25T06:19:35;7.90;99.90
64951;DHT22;51482;47.014;7.652;2023-04-25T06:22:01;8.10;99.90
64951;DHT22;51482;47.014;7.652;2023-04-25T06:24:26;7.60;99.90
64951;DHT22;51482;47.014;7.652;2023-04-25T06:26:52;7.90;99.90
64951;DHT22;51482;47.014;7.652;2023-04-25T06:29:18;8.50;99.90
64951;DHT22;51482;47.014;7.652;2023-04-25T06:31:43;8.30;99.90
64951;DHT22;51482;47.014;7.652;2023-04-25T06:34:09;8.00;99.90
64951;DHT22;51482;47.014;7.652;2023-04-25T06:36:34;7.80;99.90
64951;DHT22;51482;47.014;7.652;2023-04-25T06:39:00;7.50;99.90
64951;DHT22;51482;47.014;7.652;2023-04-25T06:41:25;8.30;99.90
64951;DHT22;51482;47.014;7.652;2023-04-25T06:43:51;7.90;99.90
64951;DHT22;51482;47.014;7.652;2023-04-25T06:46:16;7.40;99.90
64951;DHT22;51482;47.014;7.652;2023-04-25T06:48:42;7.80;99.90
64951;DHT22;51482;47.014;7.652;2023-04-25T06:51:07;8.40;99.90
64951;DHT22;51482;47.014;7.652;2023-04-25T06:53:33;8.40;99.90
64951;DHT22;51482;47.014;7.652;2023-04-25T06:55:58;7.50;99.90
64951;DHT22;51482;47.014;7.652;2023-04-25T06:58:24;8.00;99.90
64951;DHT22;51482;47.014;7.652;2023-04-25T07:00:51;8.10;99.90
64951;DHT22;51482;47.014;7.652;2023-04-25T07:03:17;8.80;99.90
64951;DHT22;51482;47.014;7.652;2023-04-25T07:05:42;8.60;99.90
64951;DHT22;51482;47.014;7.652;2023-04-25T07:08:08;8.00;99.90
64951;DHT22;51482;47.014;7.652;2023-04-25T07:10:33;8.60;99.90
64951;DHT22;51482;47.014;7.652;2023-04-25T07:12:59;8.20;99.90
64951;DHT22;51482;47.014;7.652;2023-04-25T07:15:24;8.10;99.90
64951;DHT22;51482;47.014;7.652;2023-04-25T07:17:50;8.10;99.90
64951;DHT22;51482;47.014;7.652;2023-04-25T07:20:15;7.70;99.90
64951;DHT22;51482;47.014;7.652;2023-04-25T07:22:41;8.50;99.90
64951;DHT22;51482;47.014;7.652;2023-04-25T07:25:07;8.90;99.90
64951;DHT22;51482;47.014;7.652;2023-04-25T07:27:34;9.20;99.90
64951;DHT22;51482;47.014;7.652;2023-04-25T07:29:59;9.40;99.90
64951;DHT22;51482;47.014;7.652;2023-04-25T07:32:25;8.70;99.90
64951;DHT22;51482;47.014;7.652;2023-04-25T07:34:51;8.80;99.90
64951;DHT22;51482;47.014;7.652;2023-04-25T07:37:16;9.00;99.90
64951;DHT22;51482;47.014;7.652;2023-04-25T07:39:44;9.30;99.90
64951;DHT22;51482;47.014;7.652;2023-04-25T07:42:11;9.30;99.90
64951;DHT22;51482;47.014;7.652;2023-04-25T07:44:37;9.90;99.90
64951;DHT22;51482;47.014;7.652;2023-04-25T07:47:06;9.30;99.90
64951;DHT22;51482;47.014;7.652;2023-04-25T07:49:33;8.60;99.90
64951;DHT22;51482;47.014;7.652;2023-04-25T07:51:59;8.00;99.90
64951;DHT22;51482;47.014;7.652;2023-04-25T07:54:24;8.50;99.90
64951;DHT22;51482;47.014;7.652;2023-04-25T07:56:50;8.10;99.90
64951;DHT22;51482;47.014;7.652;2023-04-25T07:59:16;8.70;99.90
64951;DHT22;51482;47.014;7.652;2023-04-25T08:01:41;8.10;99.90
64951;DHT22;51482;47.014;7.652;2023-04-25T08:04:07;8.10;99.90
64951;DHT22;51482;47.014;7.652;2023-04-25T08:06:32;7.80;99.90
64951;DHT22;51482;47.014;7.652;2023-04-25T08:08:58;8.30;99.90
64951;DHT22;51482;47.014;7.652;2023-04-25T08:11:23;7.70;99.90
64951;DHT22;51482;47.014;7.652;2023-04-25T08:13:49;7.80;99.90
64951;DHT22;51482;47.014;7.652;2023-04-25T08:16:15;7.10;99.90
64951;DHT22;51482;47.014;7.652;2023-04-25T08:18:41;7.70;99.90
64951;DHT22;51482;47.014;7.652;2023-04-25T08:21:06;7.30;99.90
64951;DHT22;51482;47.014;7.652;2023-04-25T08:23:34;7.80;99.90
64951;DHT22;51482;47.014;7.652;2023-04-25T08:25:59;8.10;99.90
64951;DHT22;51482;47.014;7.652;2023-04-25T08:28:25;7.70;99.90
64951;DHT22;51482;47.014;7.652;2023-04-25T08:30:51;8.40;99.90
64951;DHT22;51482;47.014;7.652;2023-04-25T08:33:16;8.80;99.90
64951;DHT22;51482;47.014;7.652;2023-04-25T08:35:42;8.80;99.90
64951;DHT22;51482;47.014;7.652;2023-04-25T08:38:08;9.30;99.90
64951;DHT22;51482;47.014;7.652;2023-04-25T08:40:38;9.20;99.90
64951;DHT22;51482;47.014;7.652;2023-04-25T08:43:05;9.70;99.90
64951;DHT22;51482;47.014;7.652;2023-04-25T08:45:34;9.10;99.90
64951;DHT22;51482;47.014;7.652;2023-04-25T08:48:01;9.70;99.90
64951;DHT22;51482;47.014;7.652;2023-04-25T08:50:27;10.40;99.90
64951;DHT22;51482;47.014;7.652;2023-04-25T08:52:54;10.20;99.90
64951;DHT22;51482;47.014;7.652;2023-04-25T08:55:21;11.00;99.90
64951;DHT22;51482;47.014;7.652;2023-04-25T08:57:47;10.50;99.90
64951;DHT22;51482;47.014;7.652;2023-04-25T09:00:13;11.70;99.90
64951;DHT22;51482;47.014;7.652;2023-04-25T09:02:40;11.30;99.90
64951;DHT22;51482;47.014;7.652;2023-04-25T09:05:07;11.90;99.90
64951;DHT22;51482;47.014;7.652;2023-04-25T09:07:35;11.70;99.90
64951;DHT22;51482;47.014;7.652;2023-04-25T09:10:00;11.50;99.90
64951;DHT22;51482;47.014;7.652;2023-04-25T09:12:29;11.60;99.90
64951;DHT22;51482;47.014;7.652;2023-04-25T09:15:10;11.70;99.90
64951;DHT22;51482;47.014;7.652;2023-04-25T09:17:36;11.00;99.90
64951;DHT22;51482;47.014;7.652;2023-04-25T09:20:10;10.30;99.90
64951;DHT22;51482;47.014;7.652;2023-04-25T09:22:36;10.70;99.90
64951;DHT22;51482;47.014;7.652;2023-04-25T09:25:10;10.60;99.90
64951;DHT22;51482;47.014;7.652;2023-04-25T09:27:36;10.40;99.90
64951;DHT22;51482;47.014;7.652;2023-04-25T09:30:02;9.70;99.90
64951;DHT22;51482;47.014;7.652;2023-04-25T09:32:28;10.70;99.90
64951;DHT22;51482;47.014;7.652;2023-04-25T09:34:55;10.30;99.90
64951;DHT22;51482;47.014;7.652;2023-04-25T09:37:23;10.20;99.90
64951;DHT22;51482;47.014;7.652;2023-04-25T09:39:52;9.00;99.90
64951;DHT22;51482;47.014;7.652;2023-04-25T09:42:18;8.80;99.90
64951;DHT22;51482;47.014;7.652;2023-04-25T09:44:47;8.50;99.90
64951;DHT22;51482;47.014;7.652;2023-04-25T09:47:14;8.50;99.90
64951;DHT22;51482;47.014;7.652;2023-04-25T09:49:41;8.30;99.90
64951;DHT22;51482;47.014;7.652;2023-04-25T09:52:17;8.10;99.90
64951;DHT22;51482;47.014;7.652;2023-04-25T09:54:47;8.10;99.90
64951;DHT22;51482;47.014;7.652;2023-04-25T09:57:23;7.60;99.90
64951;DHT22;51482;47.014;7.652;2023-04-25T09:59:51;7.80;99.90
64951;DHT22;51482;47.014;7.652;2023-04-25T10:02:22;8.20;99.90
64951;DHT22;51482;47.014;7.652;2023-04-25T10:04:49;8.80;99.90
64951;DHT22;51482;47.014;7.652;2023-04-25T10:07:18;9.50;99.90
64951;DHT22;51482;47.014;7.652;2023-04-25T10:09:48;9.40;99.90
64951;DHT22;51482;47.014;7.652;2023-04-25T10:12:15;9.50;99.90
64951;DHT22;51482;47.014;7.652;2023-04-25T10:14:42;10.30;99.90
64951;DHT22;51482;47.014;7.652;2023-04-25T10:17:09;10.30;99.90
64951;DHT22;51482;47.014;7.652;2023-04-25T10:19:35;10.70;99.90
64951;DHT22;51482;47.014;7.652;2023-04-25T10:22:08;10.50;99.90
64951;DHT22;51482;47.014;7.652;2023-04-25T10:24:35;10.60;99.90
64951;DHT22;51482;47.014;7.652;2023-04-25T10:27:01;10.70;99.90
64951;DHT22;51482;47.014;7.652;2023-04-25T10:29:27;11.60;99.90
64951;DHT22;51482;47.014;7.652;2023-04-25T10:31:53;11.20;99.90
64951;DHT22;51482;47.014;7.652;2023-04-25T10:34:19;11.40;99.90
64951;DHT22;51482;47.014;7.652;2023-04-25T10:36:50;11.90;99.90
64951;DHT22;51482;47.014;7.652;2023-04-25T10:39:24;11.40;99.90
64951;DHT22;51482;47.014;7.652;2023-04-25T10:42:02;10.80;99.90
64951;DHT22;51482;47.014;7.652;2023-04-25T10:44:29;11.80;99.90
64951;DHT22;51482;47.014;7.652;2023-04-25T10:46:56;12.70;99.90
64951;DHT22;51482;47.014;7.652;2023-04-25T10:49:36;12.50;99.90
64951;DHT22;51482;47.014;7.652;2023-04-25T10:54:57;12.00;99.90
64951;DHT22;51482;47.014;7.652;2023-04-25T10:59:51;11.40;99.90
64951;DHT22;51482;47.014;7.652;2023-04-25T11:02:17;12.00;99.90
64951;DHT22;51482;47.014;7.652;2023-04-25T11:04:44;11.90;99.90
64951;DHT22;51482;47.014;7.652;2023-04-25T11:07:12;11.70;99.90
64951;DHT22;51482;47.014;7.652;2023-04-25T11:09:40;11.20;99.90
64951;DHT22;51482;47.014;7.652;2023-04-25T11:12:07;10.30;99.90
64951;DHT22;51482;47.014;7.652;2023-04-25T11:14:34;10.80;99.90
64951;DHT22;51482;47.014;7.652;2023-04-25T11:17:00;10.40;99.90
64951;DHT22;51482;47.014;7.652;2023-04-25T11:19:27;10.60;99.90
64951;DHT22;51482;47.014;7.652;2023-04-25T11:22:01;9.50;99.90
64951;DHT22;51482;47.014;7.652;2023-04-25T11:24:31;10.00;99.90
64951;DHT22;51482;47.014;7.652;2023-04-25T11:27:01;10.00;99.90
64951;DHT22;51482;47.014;7.652;2023-04-25T11:29:28;10.30;99.90
64951;DHT22;51482;47.014;7.652;2023-04-25T11:31:55;10.10;99.90
64951;DHT22;51482;47.014;7.652;2023-04-25T11:34:27;9.90;99.90
64951;DHT22;51482;47.014;7.652;2023-04-25T11:36:55;9.90;99.90
64951;DHT22;51482;47.014;7.652;2023-04-25T11:39:21;10.30;99.90
64951;DHT22;51482;47.014;7.652;2023-04-25T11:41:47;10.30;99.90
64951;DHT22;51482;47.014;7.652;2023-04-25T11:44:16;10.10;99.90
64951;DHT22;51482;47.014;7.652;2023-04-25T11:46:42;10.90;99.90
64951;DHT22;51482;47.014;7.652;2023-04-25T11:49:08;10.80;99.90
64951;DHT22;51482;47.014;7.652;2023-04-25T11:51:44;11.30;99.90
64951;DHT22;51482;47.014;7.652;2023-04-25T11:54:11;11.50;99.90
64951;DHT22;51482;47.014;7.652;2023-04-25T11:56:37;11.80;99.90
64951;DHT22;51482;47.014;7.652;2023-04-25T11:59:04;11.60;99.90
64951;DHT22;51482;47.014;7.652;2023-04-25T12:01:32;11.10;99.90
64951;DHT22;51482;47.014;7.652;2023-04-25T12:04:09;10.50;99.90
64951;DHT22;51482;47.014;7.652;2023-04-25T12:06:37;11.30;99.90
64951;DHT22;51482;47.014;7.652;2023-04-25T12:09:07;11.50;99.90
64951;DHT22;51482;47.014;7.652;2023-04-25T12:11:44;12.20;99.90
64951;DHT22;51482;47.014;7.652;2023-04-25T12:14:11;11.60;99.90
64951;DHT22;51482;47.014;7.652;2023-04-25T12:16:43;11.50;99.90
64951;DHT22;51482;47.014;7.652;2023-04-25T12:19:13;11.50;99.90
64951;DHT22;51482;47.014;7.652;2023-04-25T12:21:39;11.40;99.90
64951;DHT22;51482;47.014;7.652;2023-04-25T12:24:14;12.10;99.90
64951;DHT22;51482;47.014;7.652;2023-04-25T12:27:06;12.30;99.90
64951;DHT22;51482;47.014;7.652;2023-04-25T12:29:34;11.90;99.90
64951;DHT22;51482;47.014;7.652;2023-04-25T12:32:00;12.50;99.90
64951;DHT22;51482;47.014;7.652;2023-04-25T12:34:27;12.40;99.90
64951;DHT22;51482;47.014;7.652;2023-04-25T12:36:53;12.40;99.90
64951;DHT22;51482;47.014;7.652;2023-04-25T12:39:20;12.60;99.90
64951;DHT22;51482;47.014;7.652;2023-04-25T12:41:48;12.20;99.90
64951;DHT22;51482;47.014;7.652;2023-04-25T12:44:14;12.70;99.90
64951;DHT22;51482;47.014;7.652;2023-04-25T12:46:40;14.30;99.90
64951;DHT22;51482;47.014;7.652;2023-04-25T12:49:07;15.50;99.90
64951;DHT22;51482;47.014;7.652;2023-04-25T12:51:34;15.70;99.90
64951;DHT22;51482;47.014;7.652;2023-04-25T12:54:00;15.40;99.90
64951;DHT22;51482;47.014;7.652;2023-04-25T12:56:27;15.50;99.90
64951;DHT22;51482;47.014;7.652;2023-04-25T12:58:53;15.50;99.90
64951;DHT22;51482;47.014;7.652;2023-04-25T13:01:19;15.80;99.90
64951;DHT22;51482;47.014;7.652;2023-04-25T13:03:44;15.60;99.90
64951;DHT22;51482;47.014;7.652;2023-04-25T13:06:10;15.20;99.90
64951;DHT22;51482;47.014;7.652;2023-04-25T13:08:36;15.00;99.90
64951;DHT22;51482;47.014;7.652;2023-04-25T13:11:03;14.70;99.90
64951;DHT22;51482;47.014;7.652;2023-04-25T13:13:29;14.30;99.90
64951;DHT22;51482;47.014;7.652;2023-04-25T13:15:55;14.20;99.90
64951;DHT22;51482;47.014;7.652;2023-04-25T13:18:20;14.20;99.90
64951;DHT22;51482;47.014;7.652;2023-04-25T13:20:46;14.10;99.90
64951;DHT22;51482;47.014;7.652;2023-04-25T13:23:12;13.90;99.90
64951;DHT22;51482;47.014;7.652;2023-04-25T13:25:37;14.40;99.90
64951;DHT22;51482;47.014;7.652;2023-04-25T13:28:03;13.90;99.90
64951;DHT22;51482;47.014;7.652;2023-04-25T13:30:29;13.80;99.90
64951;DHT22;51482;47.014;7.652;2023-04-25T13:32:54;13.50;99.90
64951;DHT22;51482;47.014;7.652;2023-04-25T13:35:22;14.00;99.90
64951;DHT22;51482;47.014;7.652;2023-04-25T13:37:47;14.30;99.90
64951;DHT22;51482;47.014;7.652;2023-04-25T13:40:13;14.70;99.90
64951;DHT22;51482;47.014;7.652;2023-04-25T13:42:39;14.20;99.90
64951;DHT22;51482;47.014;7.652;2023-04-25T13:45:06;14.10;99.90
64951;DHT22;51482;47.014;7.652;2023-04-25T13:47:32;14.20;99.90
64951;DHT22;51482;47.014;7.652;2023-04-25T13:49:57;14.00;99.90
64951;DHT22;51482;47.014;7.652;2023-04-25T13:52:23;14.40;99.90
64951;DHT22;51482;47.014;7.652;2023-04-25T13:54:52;15.00;99.90
64951;DHT22;51482;47.014;7.652;2023-04-25T13:57:18;14.80;99.90
64951;DHT22;51482;47.014;7.652;2023-04-25T13:59:44;14.10;99.90
64951;DHT22;51482;47.014;7.652;2023-04-25T14:02:09;15.00;99.90
64951;DHT22;51482;47.014;7.652;2023-04-25T14:04:35;15.00;99.90
64951;DHT22;51482;47.014;7.652;2023-04-25T14:07:00;14.40;99.90
64951;DHT22;51482;47.014;7.652;2023-04-25T14:09:27;14.10;99.90
64951;DHT22;51482;47.014;7.652;2023-04-25T14:11:54;14.00;99.90
64951;DHT22;51482;47.014;7.652;2023-04-25T14:14:20;14.40;99.90
64951;DHT22;51482;47.014;7.652;2023-04-25T14:16:46;15.10;99.90
64951;DHT22;51482;47.014;7.652;2023-04-25T14:19:14;15.70;99.90
64951;DHT22;51482;47.014;7.652;2023-04-25T14:21:39;16.60;99.90
64951;DHT22;51482;47.014;7.652;2023-04-25T14:24:05;17.30;99.90
64951;DHT22;51482;47.014;7.652;2023-04-25T14:26:30;16.70;99.90
64951;DHT22;51482;47.014;7.652;2023-04-25T14:28:56;16.80;99.90
64951;DHT22;51482;47.014;7.652;2023-04-25T14:31:22;16.70;99.90
64951;DHT22;51482;47.014;7.652;2023-04-25T14:33:47;16.00;98.70
64951;DHT22;51482;47.014;7.652;2023-04-25T14:36:13;16.00;99.30
64951;DHT22;51482;47.014;7.652;2023-04-25T14:38:39;15.90;99.90
64951;DHT22;51482;47.014;7.652;2023-04-25T14:41:05;15.70;99.10
64951;DHT22;51482;47.014;7.652;2023-04-25T14:43:31;15.70;99.90
64951;DHT22;51482;47.014;7.652;2023-04-25T14:45:56;16.40;99.90
64951;DHT22;51482;47.014;7.652;2023-04-25T14:48:22;16.50;99.90
64951;DHT22;51482;47.014;7.652;2023-04-25T14:50:48;15.80;99.70
64951;DHT22;51482;47.014;7.652;2023-04-25T14:53:14;16.70;99.80
64951;DHT22;51482;47.014;7.652;2023-04-25T14:55:40;15.60;96.70
64951;DHT22;51482;47.014;7.652;2023-04-25T14:58:06;15.50;97.10
64951;DHT22;51482;47.014;7.652;2023-04-25T15:00:32;14.70;97.90
64951;DHT22;51482;47.014;7.652;2023-04-25T15:02:58;13.90;98.50
64951;DHT22;51482;47.014;7.652;2023-04-25T15:05:24;14.70;99.90
64951;DHT22;51482;47.014;7.652;2023-04-25T15:07:50;14.60;99.90
64951;DHT22;51482;47.014;7.652;2023-04-25T15:10:17;14.20;99.90
64951;DHT22;51482;47.014;7.652;2023-04-25T15:12:44;12.60;99.90
64951;DHT22;51482;47.014;7.652;2023-04-25T15:15:10;12.00;99.90
64951;DHT22;51482;47.014;7.652;2023-04-25T15:17:40;11.20;99.90
64951;DHT22;51482;47.014;7.652;2023-04-25T15:20:07;10.90;99.90
64951;DHT22;51482;47.014;7.652;2023-04-25T15:22:33;10.90;99.90
64951;DHT22;51482;47.014;7.652;2023-04-25T15:24:58;11.00;99.90
64951;DHT22;51482;47.014;7.652;2023-04-25T15:27:24;11.80;99.90
64951;DHT22;51482;47.014;7.652;2023-04-25T15:29:49;12.30;99.90
64951;DHT22;51482;47.014;7.652;2023-04-25T15:32:15;13.50;99.90
64951;DHT22;51482;47.014;7.652;2023-04-25T15:34:40;13.70;99.90
64951;DHT22;51482;47.014;7.652;2023-04-25T15:37:06;15.10;99.90
64951;DHT22;51482;47.014;7.652;2023-04-25T15:39:31;14.50;99.90